createdAt,value
2023-04-24T00:04:29.315Z,100.00
2023-04-24T00:09:31.087Z,100.00
2023-04-24T00:14:32.996Z,100.00
2023-04-24T00:19:35.423Z,100.00
2023-04-24T00:24:36.993Z,100.00
2023-04-24T00:29:38.567Z,100.00
2023-04-24T00:34:40.519Z,100.00
2023-04-24T00:39:44.470Z,100.00
2023-04-24T00:44:46.836Z,100.00
2023-04-24T00:49:48.454Z,100.00
2023-04-24T00:54:50.042Z,100.00
2023-04-24T00:59:53.284Z,100.00
2023-04-24T01:04:55.063Z,100.00
2023-04-24T01:09:56.878Z,100.00
2023-04-24T01:15:00.502Z,100.00
2023-04-24T01:20:03.349Z,100.00
2023-04-24T01:25:09.132Z,100.00
2023-04-24T01:30:11.672Z,100.00
2023-04-24T01:35:13.815Z,100.00
2023-04-24T01:40:15.474Z,100.00
2023-04-24T01:45:17.161Z,100.00
2023-04-24T01:50:19.661Z,100.00
2023-04-24T01:55:21.653Z,100.00
2023-04-24T02:00:23.488Z,100.00
2023-04-24T02:05:25.277Z,100.00
2023-04-24T02:10:26.945Z,100.00
2023-04-24T02:15:28.768Z,100.00
2023-04-24T02:20:31.707Z,100.00
2023-04-24T02:25:34.756Z,100.00
2023-04-24T02:30:36.477Z,100.00
2023-04-24T02:35:38.284Z,100.00
2023-04-24T02:40:40.323Z,100.00
2023-04-24T02:45:43.812Z,100.00
2023-04-24T02:50:45.528Z,100.00
2023-04-24T02:55:47.930Z,100.00
2023-04-24T03:00:49.633Z,100.00
2023-04-24T03:05:51.397Z,100.00
2023-04-24T03:10:53.327Z,100.00
2023-04-24T03:15:57.943Z,100.00
2023-04-24T03:20:59.721Z,100.00
2023-04-24T03:26:01.665Z,100.00
2023-04-24T03:31:04.887Z,100.00
2023-04-24T03:36:12.201Z,100.00
2023-04-24T03:41:16.417Z,100.00
2023-04-24T03:46:22.381Z,100.00
2023-04-24T03:51:31.340Z,100.00
2023-04-24T03:56:40.483Z,100.00
2023-04-24T04:01:44.221Z,100.00
2023-04-24T04:06:50.028Z,100.00
2023-04-24T04:11:51.812Z,100.00
2023-04-24T04:16:54.981Z,100.00
2023-04-24T04:21:57.308Z,100.00
2023-04-24T04:27:17.555Z,100.00
2023-04-24T04:32:25.684Z,100.00
2023-04-24T04:37:29.855Z,100.00
2023-04-24T04:42:47.128Z,100.00
2023-04-24T04:47:49.742Z,100.00
2023-04-24T04:52:51.470Z,100.00
2023-04-24T04:58:01.426Z,100.00
2023-04-24T05:03:19.074Z,95.60
2023-04-24T05:13:39.185Z,95.62
2023-04-24T05:18:47.135Z,95.45
2023-04-24T05:23:52.530Z,95.38
2023-04-24T05:29:06.894Z,95.01
2023-04-24T05:34:09.688Z,95.13
2023-04-24T05:39:16.194Z,92.96
2023-04-24T05:44:18.125Z,91.76
2023-04-24T05:49:19.801Z,88.99
2023-04-24T05:54:22.315Z,91.15
2023-04-24T05:59:24.337Z,91.47
2023-04-24T06:04:27.253Z,92.28
2023-04-24T06:09:29.121Z,92.90
2023-04-24T06:14:30.919Z,90.84
2023-04-24T06:19:48.961Z,89.81
2023-04-24T06:24:51.004Z,91.04
2023-04-24T06:29:55.610Z,90.55
2023-04-24T06:34:59.094Z,90.80
2023-04-24T06:40:01.246Z,88.69
2023-04-24T06:45:04.329Z,90.71
2023-04-24T06:50:06.584Z,91.25
2023-04-24T06:55:08.977Z,91.92
2023-04-24T07:00:11.353Z,91.21
2023-04-24T07:05:16.320Z,91.32
2023-04-24T07:10:19.184Z,89.89
2023-04-24T07:15:20.920Z,90.31
2023-04-24T07:20:22.908Z,86.75
2023-04-24T07:25:24.977Z,84.09
2023-04-24T07:30:27.069Z,85.34
2023-04-24T07:35:38.012Z,82.77
2023-04-24T07:40:39.592Z,82.46
2023-04-24T07:45:41.792Z,83.18
2023-04-24T07:50:45.696Z,81.94
2023-04-24T07:55:47.356Z,78.94
2023-04-24T08:00:48.975Z,80.05
2023-04-24T08:05:52.072Z,81.75
2023-04-24T08:10:53.905Z,79.81
2023-04-24T08:15:55.628Z,81.55
2023-04-24T08:21:02.205Z,80.69
2023-04-24T08:26:04.546Z,76.45
2023-04-24T08:31:06.501Z,73.82
2023-04-24T08:36:08.656Z,74.87
2023-04-24T08:41:11.144Z,76.03
2023-04-24T08:46:16.877Z,77.45
2023-04-24T08:51:19.185Z,76.67
2023-04-24T08:56:24.478Z,77.56
2023-04-24T09:01:26.457Z,77.89
2023-04-24T09:06:29.087Z,76.79
2023-04-24T09:11:32.901Z,77.79
2023-04-24T09:16:37.018Z,76.91
2023-04-24T09:21:41.385Z,76.86
2023-04-24T09:26:50.055Z,77.19
2023-04-24T09:31:52.284Z,76.83
2023-04-24T09:36:54.827Z,75.29
2023-04-24T09:42:01.934Z,75.83
2023-04-24T09:47:03.600Z,76.43
2023-04-24T09:52:10.956Z,77.07
2023-04-24T09:57:15.774Z,81.44
2023-04-24T10:02:21.471Z,83.99
2023-04-24T10:07:23.766Z,84.82
2023-04-24T10:12:26.484Z,84.89
2023-04-24T10:17:29.491Z,83.61
2023-04-24T10:22:31.542Z,82.83
2023-04-24T10:27:33.384Z,78.32
2023-04-24T10:32:35.054Z,77.42
2023-04-24T10:37:40.796Z,78.21
2023-04-24T10:42:49.461Z,77.36
2023-04-24T10:48:07.689Z,76.41
2023-04-24T10:53:15.773Z,77.12
2023-04-24T10:58:22.784Z,76.42
2023-04-24T11:03:27.545Z,73.28
2023-04-24T11:08:39.045Z,71.08
2023-04-24T11:13:56.447Z,67.32
2023-04-24T11:19:02.062Z,68.06
2023-04-24T11:24:28.966Z,69.06
2023-04-24T11:29:45.015Z,69.61
2023-04-24T11:34:48.729Z,70.36
2023-04-24T11:39:59.617Z,69.53
2023-04-24T11:45:03.079Z,68.42
2023-04-24T11:50:08.635Z,67.89
2023-04-24T11:55:31.206Z,70.35
2023-04-24T12:00:35.386Z,70.67
2023-04-24T12:05:37.693Z,70.43
2023-04-24T12:10:39.989Z,70.50
2023-04-24T12:15:43.079Z,68.20
2023-04-24T12:20:44.897Z,65.96
2023-04-24T12:25:46.504Z,66.79
2023-04-24T12:30:49.951Z,66.49
2023-04-24T12:35:55.554Z,65.70
2023-04-24T12:41:05.526Z,65.99
2023-04-24T12:46:07.111Z,65.28
2023-04-24T12:51:08.732Z,65.58
2023-04-24T12:56:19.484Z,62.95
2023-04-24T13:01:21.142Z,62.04
2023-04-24T13:06:22.870Z,62.70
2023-04-24T13:11:25.457Z,68.08
2023-04-24T13:16:27.104Z,71.88
2023-04-24T13:21:31.244Z,73.20
2023-04-24T13:26:32.889Z,69.73
2023-04-24T13:31:34.569Z,70.12
2023-04-24T13:36:36.280Z,66.74
2023-04-24T13:41:37.947Z,68.85
2023-04-24T13:46:41.988Z,66.90
2023-04-24T13:51:44.640Z,68.44
2023-04-24T13:56:46.424Z,67.46
2023-04-24T14:01:48.926Z,67.53
2023-04-24T14:06:51.496Z,62.53
2023-04-24T14:11:53.465Z,63.70
2023-04-24T14:16:55.125Z,62.30
2023-04-24T14:21:57.897Z,61.95
2023-04-24T14:26:59.545Z,64.48
2023-04-24T14:32:01.310Z,61.97
2023-04-24T14:37:03.368Z,61.78
2023-04-24T14:42:05.010Z,60.24
2023-04-24T14:47:06.954Z,59.22
2023-04-24T14:52:08.635Z,60.42
2023-04-24T14:57:10.357Z,59.72
2023-04-24T15:02:16.326Z,60.79
2023-04-24T15:07:18.557Z,60.44
2023-04-24T15:12:22.597Z,59.79
2023-04-24T15:17:24.331Z,58.95
2023-04-24T15:22:27.099Z,59.71
2023-04-24T15:27:28.756Z,58.99
2023-04-24T15:32:30.543Z,60.50
2023-04-24T15:37:32.362Z,61.63
2023-04-24T15:42:34.061Z,58.38
2023-04-24T15:47:36.366Z,57.81
2023-04-24T15:52:38.094Z,56.92
2023-04-24T15:57:40.352Z,58.83
2023-04-24T16:02:45.373Z,58.81
2023-04-24T16:07:48.616Z,59.32
2023-04-24T16:12:51.782Z,59.99
2023-04-24T16:17:53.401Z,61.54
2023-04-24T16:22:55.061Z,62.43
2023-04-24T16:27:57.212Z,64.11
2023-04-24T16:32:59.097Z,65.42
2023-04-24T16:38:02.304Z,64.25
2023-04-24T16:43:03.984Z,64.80
2023-04-24T16:48:05.807Z,63.77
2023-04-24T16:53:07.551Z,65.35
2023-04-24T16:58:09.235Z,64.62
2023-04-24T17:03:12.420Z,64.98
2023-04-24T17:08:15.002Z,66.27
2023-04-24T17:13:16.625Z,65.33
2023-04-24T17:18:18.396Z,65.74
2023-04-24T17:23:21.077Z,66.41
2023-04-24T17:28:31.148Z,67.23
2023-04-24T17:33:32.982Z,67.08
2023-04-24T17:38:34.812Z,66.95
2023-04-24T17:43:38.339Z,68.41
2023-04-24T17:48:40.128Z,68.85
2023-04-24T17:53:43.489Z,68.41
2023-04-24T17:58:45.455Z,70.34
2023-04-24T18:03:47.393Z,69.11
2023-04-24T18:08:49.375Z,71.15
2023-04-24T18:13:51.483Z,71.91
2023-04-24T18:18:53.990Z,72.40
2023-04-24T18:23:55.849Z,74.08
2023-04-24T18:28:57.526Z,75.60
2023-04-24T18:33:59.241Z,77.90
2023-04-24T18:39:00.920Z,77.68
2023-04-24T18:44:02.529Z,77.51
2023-04-24T18:49:04.552Z,75.78
2023-04-24T18:54:06.243Z,73.79
2023-04-24T18:59:07.957Z,73.78
2023-04-24T19:04:09.557Z,74.21
2023-04-24T19:09:11.150Z,72.92
2023-04-24T19:14:16.318Z,72.84
2023-04-24T19:19:18.039Z,75.52
2023-04-24T19:24:21.169Z,79.71
2023-04-24T19:29:22.961Z,79.58
2023-04-24T19:34:25.224Z,79.54
2023-04-24T19:39:26.984Z,79.79
2023-04-24T19:44:28.637Z,78.56
2023-04-24T19:49:30.946Z,76.81
2023-04-24T19:54:32.518Z,78.16
2023-04-24T19:59:34.190Z,79.08
2023-04-24T20:04:36.126Z,77.36
2023-04-24T20:09:38.113Z,76.61
2023-04-24T20:14:39.732Z,76.60
2023-04-24T20:19:44.678Z,79.12
2023-04-24T20:24:46.566Z,79.13
2023-04-24T20:29:48.199Z,81.35
2023-04-24T20:34:49.872Z,82.07
2023-04-24T20:39:52.057Z,80.91
2023-04-24T20:44:53.689Z,80.77
2023-04-24T20:49:55.361Z,79.78
2023-04-24T20:54:57.173Z,77.43
2023-04-24T20:59:58.891Z,75.74
2023-04-24T21:05:04.124Z,75.92
2023-04-24T21:10:06.330Z,74.75
2023-04-24T21:15:08.392Z,76.08
2023-04-24T21:20:10.561Z,76.38
2023-04-24T21:25:12.258Z,75.07
2023-04-24T21:30:15.122Z,74.65
2023-04-24T21:35:16.764Z,72.44
2023-04-24T21:40:18.508Z,69.55
2023-04-24T21:45:20.569Z,68.55
2023-04-24T21:50:22.163Z,67.86
2023-04-24T21:55:24.142Z,66.47
2023-04-24T22:00:25.933Z,67.06
2023-04-24T22:05:27.836Z,63.84
2023-04-24T22:10:29.725Z,63.11
2023-04-24T22:15:31.536Z,61.72
2023-04-24T22:20:33.607Z,62.39
2023-04-24T22:25:35.521Z,63.65
2023-04-24T22:30:37.177Z,64.65
2023-04-24T22:35:38.792Z,66.57
2023-04-24T22:40:42.494Z,66.98
2023-04-24T22:45:44.203Z,66.12
2023-04-24T22:50:45.970Z,67.68
2023-04-24T22:55:47.572Z,68.70
2023-04-24T23:00:49.270Z,68.40
2023-04-24T23:05:50.897Z,67.71
2023-04-24T23:10:52.972Z,65.40
2023-04-24T23:15:54.917Z,65.66
2023-04-24T23:20:57.282Z,66.64
2023-04-24T23:25:59.758Z,67.00
2023-04-24T23:31:01.385Z,67.02
2023-04-24T23:36:03.379Z,65.44
2023-04-24T23:41:05.105Z,64.14
2023-04-24T23:46:07.399Z,63.35
2023-04-24T23:51:09.109Z,62.38
2023-04-24T23:56:11.291Z,62.51
